Terminal Aerodrome Forecast
Issued by NWS

Home | Current Version | Previous Version | Graphics & Text | Print | Product List | Glossary On
Versions: 1 2 3 4 5 6 7 8 9 10 11 12 13 14 15 16 17
000
FTUS43 KMPX 241721
TAFRNH
TAF
KRNH 241721Z 2418/2518 15012G18KT P6SM SCT015 BKN250
     FM242300 13009KT P6SM FEW012 OVC090
     FM250400 14007KT 5SM -SN BR OVC009
     FM251000 17005KT 3SM -SN BR OVC011
     FM251400 26014G22KT P6SM BKN025=

USA.gov is the U.S. government's official web portal to all federal, state and local government web resources and services.